sensor_id;sensor_type;location;lat;lon;timestamp;P1;durP1;ratioP1;P2;durP2;ratioP2
25982;SDS011;13773;48.868;10.730;2023-02-25T00:00:21;7.90;;;5.93;;
25982;SDS011;13773;48.868;10.730;2023-02-25T00:02:47;8.20;;;6.17;;
25982;SDS011;13773;48.868;10.730;2023-02-25T00:05:16;9.90;;;6.13;;
25982;SDS011;13773;48.868;10.730;2023-02-25T00:07:42;8.53;;;6.10;;
25982;SDS011;13773;48.868;10.730;2023-02-25T00:10:09;10.03;;;7.23;;
25982;SDS011;13773;48.868;10.730;2023-02-25T00:12:36;8.27;;;6.40;;
25982;SDS011;13773;48.868;10.730;2023-02-25T00:15:02;10.40;;;6.23;;
25982;SDS011;13773;48.868;10.730;2023-02-25T00:17:30;6.67;;;5.17;;
25982;SDS011;13773;48.868;10.730;2023-02-25T00:19:56;7.30;;;5.10;;
25982;SDS011;13773;48.868;10.730;2023-02-25T00:22:22;7.30;;;4.53;;
25982;SDS011;13773;48.868;10.730;2023-02-25T00:24:51;5.03;;;4.50;;
25982;SDS011;13773;48.868;10.730;2023-02-25T00:27:21;7.03;;;4.67;;
25982;SDS011;13773;48.868;10.730;2023-02-25T00:29:52;4.43;;;3.97;;
25982;SDS011;13773;48.868;10.730;2023-02-25T00:32:18;6.30;;;4.70;;
25982;SDS011;13773;48.868;10.730;2023-02-25T00:34:45;7.07;;;5.40;;
25982;SDS011;13773;48.868;10.730;2023-02-25T00:37:11;8.20;;;6.07;;
25982;SDS011;13773;48.868;10.730;2023-02-25T00:39:37;9.27;;;6.10;;
25982;SDS011;13773;48.868;10.730;2023-02-25T00:42:14;9.83;;;6.13;;
25982;SDS011;13773;48.868;10.730;2023-02-25T00:44:48;8.63;;;6.37;;
25982;SDS011;13773;48.868;10.730;2023-02-25T00:47:15;7.83;;;6.50;;
25982;SDS011;13773;48.868;10.730;2023-02-25T00:49:43;8.50;;;6.23;;
25982;SDS011;13773;48.868;10.730;2023-02-25T00:52:12;9.17;;;6.70;;
25982;SDS011;13773;48.868;10.730;2023-02-25T00:54:38;9.17;;;6.50;;
25982;SDS011;13773;48.868;10.730;2023-02-25T00:57:04;9.97;;;6.70;;
25982;SDS011;13773;48.868;10.730;2023-02-25T00:59:30;8.57;;;7.00;;
25982;SDS011;13773;48.868;10.730;2023-02-25T01:01:56;9.20;;;6.87;;
25982;SDS011;13773;48.868;10.730;2023-02-25T01:04:22;10.80;;;7.17;;
25982;SDS011;13773;48.868;10.730;2023-02-25T01:06:48;10.73;;;7.50;;
25982;SDS011;13773;48.868;10.730;2023-02-25T01:09:14;12.50;;;8.27;;
25982;SDS011;13773;48.868;10.730;2023-02-25T01:11:42;12.33;;;8.20;;
25982;SDS011;13773;48.868;10.730;2023-02-25T01:14:11;11.80;;;8.50;;
25982;SDS011;13773;48.868;10.730;2023-02-25T01:16:42;12.47;;;8.53;;
25982;SDS011;13773;48.868;10.730;2023-02-25T01:19:13;11.93;;;8.20;;
25982;SDS011;13773;48.868;10.730;2023-02-25T01:21:42;12.83;;;8.57;;
25982;SDS011;13773;48.868;10.730;2023-02-25T01:24:11;13.47;;;8.87;;
25982;SDS011;13773;48.868;10.730;2023-02-25T01:26:39;11.77;;;8.40;;
25982;SDS011;13773;48.868;10.730;2023-02-25T01:29:07;12.20;;;9.03;;
25982;SDS011;13773;48.868;10.730;2023-02-25T01:31:33;10.53;;;8.30;;
25982;SDS011;13773;48.868;10.730;2023-02-25T01:34:00;15.93;;;9.50;;
25982;SDS011;13773;48.868;10.730;2023-02-25T01:36:27;14.53;;;9.27;;
25982;SDS011;13773;48.868;10.730;2023-02-25T01:38:54;14.27;;;9.80;;
25982;SDS011;13773;48.868;10.730;2023-02-25T01:41:21;13.80;;;10.20;;
25982;SDS011;13773;48.868;10.730;2023-02-25T01:46:34;16.17;;;10.40;;
25982;SDS011;13773;48.868;10.730;2023-02-25T01:49:01;16.67;;;9.43;;
25982;SDS011;13773;48.868;10.730;2023-02-25T01:51:30;15.77;;;10.20;;
25982;SDS011;13773;48.868;10.730;2023-02-25T01:53:56;14.60;;;10.70;;
25982;SDS011;13773;48.868;10.730;2023-02-25T01:56:24;14.50;;;10.87;;
25982;SDS011;13773;48.868;10.730;2023-02-25T01:58:52;17.50;;;11.50;;
25982;SDS011;13773;48.868;10.730;2023-02-25T02:01:19;16.27;;;11.50;;
25982;SDS011;13773;48.868;10.730;2023-02-25T02:03:47;17.23;;;11.37;;
25982;SDS011;13773;48.868;10.730;2023-02-25T02:06:17;13.93;;;9.73;;
25982;SDS011;13773;48.868;10.730;2023-02-25T02:09:04;15.80;;;10.33;;
25982;SDS011;13773;48.868;10.730;2023-02-25T02:11:32;12.73;;;8.30;;
25982;SDS011;13773;48.868;10.730;2023-02-25T02:13:58;9.30;;;7.53;;
25982;SDS011;13773;48.868;10.730;2023-02-25T02:30:00;12.80;;;8.37;;
25982;SDS011;13773;48.868;10.730;2023-02-25T02:32:51;12.37;;;8.50;;
25982;SDS011;13773;48.868;10.730;2023-02-25T02:35:31;14.43;;;9.13;;
25982;SDS011;13773;48.868;10.730;2023-02-25T02:38:09;15.10;;;8.60;;
25982;SDS011;13773;48.868;10.730;2023-02-25T02:41:08;11.30;;;7.97;;
25982;SDS011;13773;48.868;10.730;2023-02-25T02:46:22;12.53;;;7.63;;
25982;SDS011;13773;48.868;10.730;2023-02-25T02:49:07;14.60;;;8.57;;
25982;SDS011;13773;48.868;10.730;2023-02-25T02:54:21;14.10;;;7.93;;
25982;SDS011;13773;48.868;10.730;2023-02-25T02:56:51;13.50;;;8.10;;
25982;SDS011;13773;48.868;10.730;2023-02-25T02:59:24;12.93;;;8.03;;
25982;SDS011;13773;48.868;10.730;2023-02-25T03:02:00;12.53;;;8.00;;
25982;SDS011;13773;48.868;10.730;2023-02-25T03:04:49;15.07;;;8.03;;
25982;SDS011;13773;48.868;10.730;2023-02-25T03:07:19;13.13;;;8.53;;
25982;SDS011;13773;48.868;10.730;2023-02-25T03:09:48;12.30;;;8.17;;
25982;SDS011;13773;48.868;10.730;2023-02-25T03:12:17;13.37;;;8.80;;
25982;SDS011;13773;48.868;10.730;2023-02-25T03:14:43;14.80;;;8.63;;
25982;SDS011;13773;48.868;10.730;2023-02-25T03:17:10;14.80;;;8.97;;
25982;SDS011;13773;48.868;10.730;2023-02-25T03:22:33;11.53;;;7.97;;
25982;SDS011;13773;48.868;10.730;2023-02-25T03:25:08;11.43;;;7.67;;
25982;SDS011;13773;48.868;10.730;2023-02-25T03:27:38;11.60;;;7.23;;
25982;SDS011;13773;48.868;10.730;2023-02-25T03:32:36;11.80;;;6.67;;
25982;SDS011;13773;48.868;10.730;2023-02-25T03:35:06;11.30;;;5.73;;
25982;SDS011;13773;48.868;10.730;2023-02-25T03:37:34;9.80;;;7.00;;
25982;SDS011;13773;48.868;10.730;2023-02-25T03:40:04;7.93;;;5.27;;
25982;SDS011;13773;48.868;10.730;2023-02-25T03:42:37;9.73;;;4.80;;
25982;SDS011;13773;48.868;10.730;2023-02-25T03:45:07;6.00;;;4.20;;
25982;SDS011;13773;48.868;10.730;2023-02-25T03:47:36;6.10;;;4.50;;
25982;SDS011;13773;48.868;10.730;2023-02-25T03:52:55;8.37;;;4.60;;
25982;SDS011;13773;48.868;10.730;2023-02-25T03:55:22;7.10;;;4.90;;
25982;SDS011;13773;48.868;10.730;2023-02-25T03:57:49;8.00;;;4.60;;
25982;SDS011;13773;48.868;10.730;2023-02-25T04:00:26;7.70;;;4.70;;
25982;SDS011;13773;48.868;10.730;2023-02-25T04:02:56;11.00;;;4.40;;
25982;SDS011;13773;48.868;10.730;2023-02-25T04:05:23;7.73;;;4.70;;
25982;SDS011;13773;48.868;10.730;2023-02-25T04:07:52;9.43;;;4.77;;
25982;SDS011;13773;48.868;10.730;2023-02-25T04:10:22;7.27;;;4.23;;
25982;SDS011;13773;48.868;10.730;2023-02-25T04:12:48;6.30;;;4.10;;
25982;SDS011;13773;48.868;10.730;2023-02-25T04:15:17;7.03;;;4.57;;
25982;SDS011;13773;48.868;10.730;2023-02-25T04:17:43;8.47;;;4.20;;
25982;SDS011;13773;48.868;10.730;2023-02-25T04:20:11;6.63;;;3.77;;
25982;SDS011;13773;48.868;10.730;2023-02-25T04:22:37;6.33;;;4.17;;
25982;SDS011;13773;48.868;10.730;2023-02-25T04:25:03;8.43;;;4.03;;
25982;SDS011;13773;48.868;10.730;2023-02-25T04:27:30;9.20;;;4.00;;
25982;SDS011;13773;48.868;10.730;2023-02-25T04:29:56;6.80;;;3.57;;
25982;SDS011;13773;48.868;10.730;2023-02-25T04:32:23;7.13;;;3.40;;
25982;SDS011;13773;48.868;10.730;2023-02-25T04:34:49;6.77;;;3.70;;
25982;SDS011;13773;48.868;10.730;2023-02-25T04:37:15;5.40;;;3.40;;
25982;SDS011;13773;48.868;10.730;2023-02-25T04:39:41;6.57;;;3.70;;
25982;SDS011;13773;48.868;10.730;2023-02-25T04:42:07;7.57;;;4.10;;
25982;SDS011;13773;48.868;10.730;2023-02-25T04:44:33;6.13;;;3.80;;
25982;SDS011;13773;48.868;10.730;2023-02-25T04:46:59;6.80;;;3.53;;
25982;SDS011;13773;48.868;10.730;2023-02-25T04:49:25;6.90;;;3.80;;
25982;SDS011;13773;48.868;10.730;2023-02-25T04:51:50;7.37;;;3.40;;
25982;SDS011;13773;48.868;10.730;2023-02-25T04:54:19;5.37;;;3.13;;
25982;SDS011;13773;48.868;10.730;2023-02-25T04:56:45;6.83;;;3.20;;
25982;SDS011;13773;48.868;10.730;2023-02-25T04:59:12;7.70;;;4.00;;
25982;SDS011;13773;48.868;10.730;2023-02-25T05:01:38;9.53;;;4.03;;
25982;SDS011;13773;48.868;10.730;2023-02-25T05:04:04;6.63;;;3.37;;
25982;SDS011;13773;48.868;10.730;2023-02-25T05:06:30;5.63;;;3.53;;
25982;SDS011;13773;48.868;10.730;2023-02-25T05:08:56;5.93;;;3.53;;
25982;SDS011;13773;48.868;10.730;2023-02-25T05:11:22;6.37;;;3.57;;
25982;SDS011;13773;48.868;10.730;2023-02-25T05:13:48;6.30;;;3.67;;
25982;SDS011;13773;48.868;10.730;2023-02-25T05:16:14;6.17;;;3.90;;
25982;SDS011;13773;48.868;10.730;2023-02-25T05:18:42;7.27;;;3.67;;
25982;SDS011;13773;48.868;10.730;2023-02-25T05:21:10;7.73;;;4.10;;
25982;SDS011;13773;48.868;10.730;2023-02-25T05:23:41;8.10;;;4.47;;
25982;SDS011;13773;48.868;10.730;2023-02-25T05:26:07;6.53;;;3.80;;
25982;SDS011;13773;48.868;10.730;2023-02-25T05:28:34;6.90;;;3.63;;
25982;SDS011;13773;48.868;10.730;2023-02-25T05:31:04;6.67;;;3.70;;
25982;SDS011;13773;48.868;10.730;2023-02-25T05:33:31;8.07;;;4.10;;
25982;SDS011;13773;48.868;10.730;2023-02-25T05:35:56;7.60;;;3.50;;
25982;SDS011;13773;48.868;10.730;2023-02-25T05:38:22;6.67;;;3.63;;
25982;SDS011;13773;48.868;10.730;2023-02-25T05:40:48;7.60;;;4.17;;
25982;SDS011;13773;48.868;10.730;2023-02-25T05:43:14;8.70;;;3.70;;
25982;SDS011;13773;48.868;10.730;2023-02-25T05:45:39;6.47;;;4.33;;
25982;SDS011;13773;48.868;10.730;2023-02-25T05:48:05;8.33;;;4.50;;
25982;SDS011;13773;48.868;10.730;2023-02-25T05:50:31;5.87;;;3.80;;
25982;SDS011;13773;48.868;10.730;2023-02-25T05:52:58;11.17;;;4.30;;
25982;SDS011;13773;48.868;10.730;2023-02-25T05:55:24;9.53;;;5.10;;
25982;SDS011;13773;48.868;10.730;2023-02-25T05:57:51;9.23;;;4.30;;
25982;SDS011;13773;48.868;10.730;2023-02-25T06:00:16;6.83;;;4.77;;
25982;SDS011;13773;48.868;10.730;2023-02-25T06:02:45;8.37;;;4.63;;
25982;SDS011;13773;48.868;10.730;2023-02-25T06:05:11;8.83;;;4.70;;
25982;SDS011;13773;48.868;10.730;2023-02-25T06:07:37;9.17;;;4.57;;
25982;SDS011;13773;48.868;10.730;2023-02-25T06:10:04;8.13;;;4.53;;
25982;SDS011;13773;48.868;10.730;2023-02-25T06:12:31;9.63;;;4.53;;
25982;SDS011;13773;48.868;10.730;2023-02-25T06:14:58;10.70;;;4.83;;
25982;SDS011;13773;48.868;10.730;2023-02-25T06:17:24;7.33;;;4.00;;
25982;SDS011;13773;48.868;10.730;2023-02-25T06:19:51;7.07;;;4.03;;
25982;SDS011;13773;48.868;10.730;2023-02-25T06:22:20;8.43;;;4.73;;
25982;SDS011;13773;48.868;10.730;2023-02-25T06:24:47;7.63;;;4.20;;
25982;SDS011;13773;48.868;10.730;2023-02-25T06:27:13;10.27;;;4.70;;
25982;SDS011;13773;48.868;10.730;2023-02-25T06:29:39;7.30;;;4.07;;
25982;SDS011;13773;48.868;10.730;2023-02-25T06:32:08;8.83;;;4.37;;
25982;SDS011;13773;48.868;10.730;2023-02-25T06:34:35;9.17;;;4.20;;
25982;SDS011;13773;48.868;10.730;2023-02-25T06:37:01;9.93;;;4.30;;
25982;SDS011;13773;48.868;10.730;2023-02-25T06:39:26;6.10;;;3.83;;
25982;SDS011;13773;48.868;10.730;2023-02-25T06:41:52;6.93;;;3.73;;
25982;SDS011;13773;48.868;10.730;2023-02-25T06:44:18;8.43;;;3.97;;
25982;SDS011;13773;48.868;10.730;2023-02-25T06:46:43;10.90;;;4.53;;
25982;SDS011;13773;48.868;10.730;2023-02-25T06:49:09;10.70;;;3.70;;
25982;SDS011;13773;48.868;10.730;2023-02-25T06:51:36;7.60;;;4.20;;
25982;SDS011;13773;48.868;10.730;2023-02-25T06:54:02;9.77;;;4.40;;
25982;SDS011;13773;48.868;10.730;2023-02-25T06:56:28;8.87;;;3.77;;
25982;SDS011;13773;48.868;10.730;2023-02-25T06:58:54;6.97;;;3.57;;
25982;SDS011;13773;48.868;10.730;2023-02-25T07:01:23;9.77;;;3.93;;
25982;SDS011;13773;48.868;10.730;2023-02-25T07:03:49;11.50;;;4.43;;
25982;SDS011;13773;48.868;10.730;2023-02-25T07:06:15;10.50;;;4.13;;
25982;SDS011;13773;48.868;10.730;2023-02-25T07:08:42;8.67;;;4.20;;
25982;SDS011;13773;48.868;10.730;2023-02-25T07:13:45;10.50;;;3.63;;
25982;SDS011;13773;48.868;10.730;2023-02-25T07:16:12;6.03;;;3.43;;
25982;SDS011;13773;48.868;10.730;2023-02-25T07:18:40;8.07;;;3.53;;
25982;SDS011;13773;48.868;10.730;2023-02-25T07:21:06;7.00;;;4.00;;
25982;SDS011;13773;48.868;10.730;2023-02-25T07:23:32;8.97;;;3.17;;
25982;SDS011;13773;48.868;10.730;2023-02-25T07:26:02;8.70;;;4.27;;
25982;SDS011;13773;48.868;10.730;2023-02-25T07:28:29;7.47;;;4.03;;
25982;SDS011;13773;48.868;10.730;2023-02-25T07:30:58;8.00;;;3.67;;
25982;SDS011;13773;48.868;10.730;2023-02-25T07:33:24;6.73;;;3.60;;
25982;SDS011;13773;48.868;10.730;2023-02-25T07:35:52;10.50;;;4.03;;
25982;SDS011;13773;48.868;10.730;2023-02-25T07:38:18;9.87;;;3.33;;
25982;SDS011;13773;48.868;10.730;2023-02-25T07:40:44;9.93;;;3.40;;
25982;SDS011;13773;48.868;10.730;2023-02-25T07:43:10;9.07;;;3.40;;
25982;SDS011;13773;48.868;10.730;2023-02-25T07:45:35;10.70;;;3.07;;
25982;SDS011;13773;48.868;10.730;2023-02-25T07:48:01;5.33;;;2.83;;
25982;SDS011;13773;48.868;10.730;2023-02-25T07:50:27;7.97;;;2.50;;
25982;SDS011;13773;48.868;10.730;2023-02-25T07:52:52;8.37;;;2.47;;
25982;SDS011;13773;48.868;10.730;2023-02-25T07:55:18;8.73;;;2.63;;
25982;SDS011;13773;48.868;10.730;2023-02-25T07:57:44;6.90;;;3.30;;
25982;SDS011;13773;48.868;10.730;2023-02-25T08:00:10;5.93;;;3.10;;
25982;SDS011;13773;48.868;10.730;2023-02-25T08:02:36;5.43;;;2.43;;
25982;SDS011;13773;48.868;10.730;2023-02-25T08:05:02;6.60;;;2.80;;
25982;SDS011;13773;48.868;10.730;2023-02-25T08:07:29;7.67;;;3.00;;
25982;SDS011;13773;48.868;10.730;2023-02-25T08:09:55;6.00;;;3.00;;
25982;SDS011;13773;48.868;10.730;2023-02-25T08:12:20;4.87;;;2.80;;
25982;SDS011;13773;48.868;10.730;2023-02-25T08:14:47;7.50;;;3.67;;
25982;SDS011;13773;48.868;10.730;2023-02-25T08:17:13;9.10;;;3.20;;
25982;SDS011;13773;48.868;10.730;2023-02-25T08:19:39;9.30;;;3.23;;
25982;SDS011;13773;48.868;10.730;2023-02-25T08:22:05;6.30;;;2.33;;
25982;SDS011;13773;48.868;10.730;2023-02-25T08:24:35;5.07;;;2.73;;
25982;SDS011;13773;48.868;10.730;2023-02-25T08:27:04;5.97;;;2.70;;
25982;SDS011;13773;48.868;10.730;2023-02-25T08:29:34;6.63;;;2.07;;
25982;SDS011;13773;48.868;10.730;2023-02-25T08:32:01;8.00;;;3.87;;
25982;SDS011;13773;48.868;10.730;2023-02-25T08:34:27;6.90;;;2.70;;
25982;SDS011;13773;48.868;10.730;2023-02-25T08:36:53;7.37;;;2.50;;
25982;SDS011;13773;48.868;10.730;2023-02-25T08:39:18;8.00;;;2.57;;
25982;SDS011;13773;48.868;10.730;2023-02-25T08:41:44;4.17;;;2.33;;
25982;SDS011;13773;48.868;10.730;2023-02-25T08:44:10;4.77;;;2.70;;
25982;SDS011;13773;48.868;10.730;2023-02-25T08:46:36;7.70;;;2.40;;
25982;SDS011;13773;48.868;10.730;2023-02-25T08:49:02;5.03;;;2.73;;
25982;SDS011;13773;48.868;10.730;2023-02-25T08:51:29;4.97;;;2.43;;
25982;SDS011;13773;48.868;10.730;2023-02-25T08:54:02;5.03;;;2.07;;
25982;SDS011;13773;48.868;10.730;2023-02-25T08:56:32;7.23;;;2.70;;
25982;SDS011;13773;48.868;10.730;2023-02-25T08:58:59;6.87;;;2.43;;
25982;SDS011;13773;48.868;10.730;2023-02-25T09:01:25;8.77;;;2.90;;
25982;SDS011;13773;48.868;10.730;2023-02-25T09:04:02;5.23;;;2.10;;
25982;SDS011;13773;48.868;10.730;2023-02-25T09:06:28;7.63;;;2.90;;
25982;SDS011;13773;48.868;10.730;2023-02-25T09:08:55;5.07;;;1.83;;
25982;SDS011;13773;48.868;10.730;2023-02-25T09:11:22;6.67;;;2.10;;
25982;SDS011;13773;48.868;10.730;2023-02-25T09:13:48;4.77;;;2.43;;
25982;SDS011;13773;48.868;10.730;2023-02-25T09:16:14;4.77;;;2.00;;
25982;SDS011;13773;48.868;10.730;2023-02-25T09:18:41;4.80;;;2.03;;
25982;SDS011;13773;48.868;10.730;2023-02-25T09:21:08;4.17;;;1.70;;
25982;SDS011;13773;48.868;10.730;2023-02-25T09:23:35;4.17;;;1.70;;
25982;SDS011;13773;48.868;10.730;2023-02-25T09:26:04;5.63;;;1.80;;
25982;SDS011;13773;48.868;10.730;2023-02-25T09:28:33;4.53;;;1.73;;
25982;SDS011;13773;48.868;10.730;2023-02-25T09:31:00;6.07;;;2.10;;
25982;SDS011;13773;48.868;10.730;2023-02-25T09:33:32;5.13;;;1.63;;
25982;SDS011;13773;48.868;10.730;2023-02-25T09:36:06;5.17;;;1.83;;
25982;SDS011;13773;48.868;10.730;2023-02-25T09:38:34;6.23;;;1.53;;
25982;SDS011;13773;48.868;10.730;2023-02-25T09:41:01;3.00;;;1.80;;
25982;SDS011;13773;48.868;10.730;2023-02-25T09:43:38;6.80;;;2.60;;
25982;SDS011;13773;48.868;10.730;2023-02-25T09:46:10;5.33;;;1.83;;
25982;SDS011;13773;48.868;10.730;2023-02-25T09:48:49;5.57;;;2.30;;
25982;SDS011;13773;48.868;10.730;2023-02-25T09:51:33;5.70;;;2.03;;
25982;SDS011;13773;48.868;10.730;2023-02-25T09:54:08;7.00;;;1.90;;
25982;SDS011;13773;48.868;10.730;2023-02-25T09:56:42;4.23;;;1.60;;
25982;SDS011;13773;48.868;10.730;2023-02-25T09:59:13;3.73;;;1.60;;
25982;SDS011;13773;48.868;10.730;2023-02-25T10:04:57;5.37;;;1.70;;
25982;SDS011;13773;48.868;10.730;2023-02-25T10:07:33;6.13;;;2.20;;
25982;SDS011;13773;48.868;10.730;2023-02-25T10:18:17;1.80;;;1.30;;
25982;SDS011;13773;48.868;10.730;2023-02-25T10:21:04;2.57;;;1.40;;
25982;SDS011;13773;48.868;10.730;2023-02-25T10:26:34;8.73;;;2.13;;
25982;SDS011;13773;48.868;10.730;2023-02-25T10:29:06;5.10;;;2.00;;
25982;SDS011;13773;48.868;10.730;2023-02-25T10:31:37;5.83;;;1.93;;
25982;SDS011;13773;48.868;10.730;2023-02-25T10:34:18;5.73;;;1.67;;
25982;SDS011;13773;48.868;10.730;2023-02-25T10:36:47;3.43;;;1.80;;
25982;SDS011;13773;48.868;10.730;2023-02-25T10:39:18;8.67;;;2.27;;
25982;SDS011;13773;48.868;10.730;2023-02-25T10:41:44;4.60;;;1.60;;
25982;SDS011;13773;48.868;10.730;2023-02-25T10:44:10;4.13;;;1.90;;
25982;SDS011;13773;48.868;10.730;2023-02-25T10:46:39;4.63;;;2.17;;
25982;SDS011;13773;48.868;10.730;2023-02-25T10:49:13;6.87;;;1.80;;
25982;SDS011;13773;48.868;10.730;2023-02-25T10:57:17;4.27;;;1.77;;
25982;SDS011;13773;48.868;10.730;2023-02-25T11:00:07;3.37;;;1.67;;
25982;SDS011;13773;48.868;10.730;2023-02-25T11:02:48;7.17;;;2.50;;
25982;SDS011;13773;48.868;10.730;2023-02-25T11:08:00;7.80;;;2.17;;
25982;SDS011;13773;48.868;10.730;2023-02-25T11:10:29;8.07;;;2.37;;
25982;SDS011;13773;48.868;10.730;2023-02-25T11:12:56;4.67;;;2.10;;
25982;SDS011;13773;48.868;10.730;2023-02-25T11:18:36;4.27;;;2.07;;
25982;SDS011;13773;48.868;10.730;2023-02-25T11:20:52;4.83;;;1.77;;
25982;SDS011;13773;48.868;10.730;2023-02-25T11:23:28;6.17;;;1.87;;
25982;SDS011;13773;48.868;10.730;2023-02-25T11:26:03;4.40;;;1.90;;
25982;SDS011;13773;48.868;10.730;2023-02-25T11:28:37;4.73;;;1.60;;
25982;SDS011;13773;48.868;10.730;2023-02-25T11:31:19;3.47;;;1.70;;
25982;SDS011;13773;48.868;10.730;2023-02-25T11:33:50;5.70;;;1.87;;
25982;SDS011;13773;48.868;10.730;2023-02-25T11:36:22;2.50;;;1.60;;
25982;SDS011;13773;48.868;10.730;2023-02-25T11:39:03;5.80;;;1.77;;
25982;SDS011;13773;48.868;10.730;2023-02-25T11:41:44;3.37;;;1.70;;
25982;SDS011;13773;48.868;10.730;2023-02-25T11:44:20;6.73;;;2.60;;
25982;SDS011;13773;48.868;10.730;2023-02-25T11:46:56;4.90;;;1.60;;
25982;SDS011;13773;48.868;10.730;2023-02-25T11:52:21;3.80;;;1.40;;
25982;SDS011;13773;48.868;10.730;2023-02-25T11:55:08;5.20;;;1.60;;
25982;SDS011;13773;48.868;10.730;2023-02-25T12:30:54;2.63;;;1.67;;
25982;SDS011;13773;48.868;10.730;2023-02-25T12:36:41;1.57;;;1.30;;
25982;SDS011;13773;48.868;10.730;2023-02-25T12:56:01;4.07;;;1.60;;
25982;SDS011;13773;48.868;10.730;2023-02-25T12:59:22;2.50;;;1.60;;
25982;SDS011;13773;48.868;10.730;2023-02-25T13:02:16;4.63;;;1.90;;
25982;SDS011;13773;48.868;10.730;2023-02-25T13:08:09;5.37;;;1.63;;
25982;SDS011;13773;48.868;10.730;2023-02-25T13:24:39;4.50;;;2.13;;
25982;SDS011;13773;48.868;10.730;2023-02-25T13:35:11;4.20;;;2.17;;
25982;SDS011;13773;48.868;10.730;2023-02-25T13:37:56;4.43;;;2.77;;
25982;SDS011;13773;48.868;10.730;2023-02-25T13:40:24;3.00;;;1.57;;
25982;SDS011;13773;48.868;10.730;2023-02-25T13:54:08;2.23;;;1.80;;
25982;SDS011;13773;48.868;10.730;2023-02-25T14:05:23;3.83;;;1.83;;
25982;SDS011;13773;48.868;10.730;2023-02-25T14:13:36;3.10;;;1.87;;
25982;SDS011;13773;48.868;10.730;2023-02-25T14:25:03;3.37;;;1.80;;
25982;SDS011;13773;48.868;10.730;2023-02-25T14:30:29;2.83;;;1.73;;
25982;SDS011;13773;48.868;10.730;2023-02-25T14:39:03;5.10;;;2.30;;
25982;SDS011;13773;48.868;10.730;2023-02-25T14:44:52;7.60;;;2.33;;
25982;SDS011;13773;48.868;10.730;2023-02-25T14:47:39;2.77;;;2.10;;
25982;SDS011;13773;48.868;10.730;2023-02-25T14:50:13;2.40;;;2.00;;
25982;SDS011;13773;48.868;10.730;2023-02-25T15:13:05;4.57;;;2.50;;
25982;SDS011;13773;48.868;10.730;2023-02-25T15:24:03;3.80;;;2.90;;
25982;SDS011;13773;48.868;10.730;2023-02-25T15:26:52;5.13;;;3.50;;
25982;SDS011;13773;48.868;10.730;2023-02-25T15:34:35;7.43;;;4.80;;
25982;SDS011;13773;48.868;10.730;2023-02-25T15:37:18;4.23;;;3.73;;
25982;SDS011;13773;48.868;10.730;2023-02-25T15:39:52;5.20;;;2.60;;
25982;SDS011;13773;48.868;10.730;2023-02-25T15:42:40;5.30;;;3.53;;
25982;SDS011;13773;48.868;10.730;2023-02-25T15:51:07;4.77;;;3.67;;
25982;SDS011;13773;48.868;10.730;2023-02-25T15:55:51;4.97;;;3.83;;
25982;SDS011;13773;48.868;10.730;2023-02-25T16:00:50;7.67;;;4.73;;
25982;SDS011;13773;48.868;10.730;2023-02-25T16:14:19;7.90;;;4.70;;
25982;SDS011;13773;48.868;10.730;2023-02-25T16:19:57;7.70;;;4.93;;
25982;SDS011;13773;48.868;10.730;2023-02-25T16:22:29;6.83;;;4.83;;
25982;SDS011;13773;48.868;10.730;2023-02-25T16:24:56;4.83;;;3.10;;
25982;SDS011;13773;48.868;10.730;2023-02-25T16:40:42;5.40;;;4.20;;
25982;SDS011;13773;48.868;10.730;2023-02-25T16:43:13;8.90;;;5.73;;
25982;SDS011;13773;48.868;10.730;2023-02-25T16:46:26;9.40;;;6.60;;
25982;SDS011;13773;48.868;10.730;2023-02-25T16:51:35;40.70;;;18.17;;
25982;SDS011;13773;48.868;10.730;2023-02-25T16:56:46;45.13;;;17.27;;
25982;SDS011;13773;48.868;10.730;2023-02-25T16:59:18;15.80;;;8.70;;
25982;SDS011;13773;48.868;10.730;2023-02-25T17:04:32;7.50;;;4.00;;
25982;SDS011;13773;48.868;10.730;2023-02-25T17:07:13;8.60;;;4.83;;
25982;SDS011;13773;48.868;10.730;2023-02-25T17:12:13;5.83;;;4.30;;
25982;SDS011;13773;48.868;10.730;2023-02-25T17:14:44;10.13;;;5.37;;
25982;SDS011;13773;48.868;10.730;2023-02-25T17:17:27;6.17;;;4.07;;
25982;SDS011;13773;48.868;10.730;2023-02-25T17:20:02;5.60;;;3.83;;
25982;SDS011;13773;48.868;10.730;2023-02-25T17:22:33;6.43;;;4.67;;
25982;SDS011;13773;48.868;10.730;2023-02-25T17:25:02;6.53;;;5.07;;
25982;SDS011;13773;48.868;10.730;2023-02-25T17:27:29;7.43;;;5.88;;
25982;SDS011;13773;48.868;10.730;2023-02-25T17:29:56;8.00;;;5.60;;
25982;SDS011;13773;48.868;10.730;2023-02-25T17:32:27;7.50;;;5.30;;
25982;SDS011;13773;48.868;10.730;2023-02-25T17:34:54;8.17;;;5.07;;
25982;SDS011;13773;48.868;10.730;2023-02-25T17:37:24;10.17;;;6.57;;
25982;SDS011;13773;48.868;10.730;2023-02-25T17:39:53;15.43;;;11.50;;
25982;SDS011;13773;48.868;10.730;2023-02-25T17:45:04;13.33;;;10.07;;
25982;SDS011;13773;48.868;10.730;2023-02-25T17:47:51;9.43;;;7.20;;
25982;SDS011;13773;48.868;10.730;2023-02-25T17:52:55;8.30;;;4.63;;
25982;SDS011;13773;48.868;10.730;2023-02-25T17:55:26;12.50;;;8.00;;
25982;SDS011;13773;48.868;10.730;2023-02-25T17:57:56;8.00;;;4.80;;
25982;SDS011;13773;48.868;10.730;2023-02-25T18:00:31;12.60;;;10.77;;
25982;SDS011;13773;48.868;10.730;2023-02-25T18:03:32;13.17;;;8.57;;
25982;SDS011;13773;48.868;10.730;2023-02-25T18:05:58;6.93;;;5.30;;
25982;SDS011;13773;48.868;10.730;2023-02-25T18:08:29;8.03;;;6.30;;
25982;SDS011;13773;48.868;10.730;2023-02-25T18:11:01;7.57;;;5.93;;
25982;SDS011;13773;48.868;10.730;2023-02-25T18:13:41;8.70;;;5.13;;
25982;SDS011;13773;48.868;10.730;2023-02-25T18:16:15;5.27;;;3.77;;
25982;SDS011;13773;48.868;10.730;2023-02-25T18:18:59;37.70;;;18.70;;
25982;SDS011;13773;48.868;10.730;2023-02-25T18:21:26;7.97;;;5.17;;
25982;SDS011;13773;48.868;10.730;2023-02-25T18:23:52;42.33;;;22.00;;
25982;SDS011;13773;48.868;10.730;2023-02-25T18:26:20;10.93;;;7.03;;
25982;SDS011;13773;48.868;10.730;2023-02-25T18:28:49;8.43;;;5.50;;
25982;SDS011;13773;48.868;10.730;2023-02-25T18:31:19;9.07;;;7.33;;
25982;SDS011;13773;48.868;10.730;2023-02-25T18:33:46;6.33;;;4.30;;
25982;SDS011;13773;48.868;10.730;2023-02-25T18:36:19;5.43;;;3.80;;
25982;SDS011;13773;48.868;10.730;2023-02-25T18:38:47;10.53;;;6.93;;
25982;SDS011;13773;48.868;10.730;2023-02-25T18:41:13;10.97;;;9.53;;
25982;SDS011;13773;48.868;10.730;2023-02-25T18:43:40;13.73;;;8.43;;
25982;SDS011;13773;48.868;10.730;2023-02-25T18:46:07;11.33;;;9.17;;
25982;SDS011;13773;48.868;10.730;2023-02-25T18:48:33;12.47;;;8.73;;
25982;SDS011;13773;48.868;10.730;2023-02-25T18:51:00;21.53;;;17.77;;
25982;SDS011;13773;48.868;10.730;2023-02-25T18:53:26;8.67;;;5.50;;
25982;SDS011;13773;48.868;10.730;2023-02-25T18:55:53;8.33;;;5.80;;
25982;SDS011;13773;48.868;10.730;2023-02-25T18:58:20;7.50;;;5.40;;
25982;SDS011;13773;48.868;10.730;2023-02-25T19:00:50;7.77;;;6.30;;
25982;SDS011;13773;48.868;10.730;2023-02-25T19:03:23;11.23;;;6.13;;
25982;SDS011;13773;48.868;10.730;2023-02-25T19:05:54;11.63;;;7.17;;
25982;SDS011;13773;48.868;10.730;2023-02-25T19:08:20;9.37;;;6.53;;
25982;SDS011;13773;48.868;10.730;2023-02-25T19:10:46;10.00;;;6.83;;
25982;SDS011;13773;48.868;10.730;2023-02-25T19:13:17;11.50;;;7.57;;
25982;SDS011;13773;48.868;10.730;2023-02-25T19:15:49;13.37;;;8.97;;
25982;SDS011;13773;48.868;10.730;2023-02-25T19:18:15;16.47;;;8.77;;
25982;SDS011;13773;48.868;10.730;2023-02-25T19:20:41;9.23;;;6.27;;